Time;durP1;ratioP1;P1;durP2;ratioP2;P2;SDS_P1;SDS_P2;PMS_P1;PMS_P2;Temp;Humidity;BMP_temperature;BMP_pressure;BME280_temperature;BME280_humidity;BME280_pressure;Samples;Min_cycle;Max_cycle;Signal;HPM_P1;HPM_P2
2022/10/20 00:00:34;;;;;;;;;;;8.30;99.90;;;;;;12555557;28;19974;-36
2022/10/20 00:06:36;;;;;;;;;;;8.30;99.90;;;;;;12553320;28;19968;-36
2022/10/20 00:12:38;;;;;;;;;;;8.30;99.90;;;;;;12557275;28;19924;-36
2022/10/20 00:18:40;;;;;;;;;;;8.20;99.90;;;;;;12550347;28;19928;-36
2022/10/20 00:24:42;;;;;;;;;;;8.10;99.90;;;;;;12545462;28;20397;-36
2022/10/20 00:30:44;;;;;;;;;;;8.10;99.90;;;;;;12553416;28;19928;-36
2022/10/20 00:36:46;;;;;;;;;;;7.80;99.90;;;;;;12546247;28;19924;-36
2022/10/20 00:42:52;;;;;;;;;;;8.00;99.90;;;;;;12530520;28;19925;-36
2022/10/20 00:48:56;;;;;;;;;;;8.10;99.90;;;;;;12549874;28;20361;-36
2022/10/20 00:54:58;;;;;;;;;;;8.10;99.90;;;;;;12554179;28;19925;-36
2022/10/20 01:01:00;;;;;;;;;;;8.10;99.90;;;;;;12549280;28;20023;-36
2022/10/20 01:07:02;;;;;;;;;;;7.90;99.90;;;;;;12548714;28;20308;-36
2022/10/20 01:13:14;;;;;;;;;;;8.00;99.90;;;;;;12556018;28;20023;-37
2022/10/20 01:19:19;;;;;;;;;;;7.90;99.90;;;;;;12546232;28;19925;-36
2022/10/20 01:25:33;;;;;;;;;;;7.90;99.90;;;;;;12535321;28;19943;-36
2022/10/20 01:31:46;;;;;;;;;;;7.80;99.90;;;;;;12539976;28;19925;-37
2022/10/20 01:37:51;;;;;;;;;;;7.70;99.90;;;;;;12557245;28;19929;-36
2022/10/20 01:43:54;;;;;;;;;;;7.40;99.90;;;;;;12554359;28;19986;-36
2022/10/20 01:49:56;;;;;;;;;;;7.40;99.90;;;;;;12548721;28;19963;-36
2022/10/20 01:55:59;;;;;;;;;;;7.60;99.90;;;;;;12544237;28;19929;-36
2022/10/20 02:02:04;;;;;;;;;;;7.50;99.90;;;;;;12548231;28;20466;-36
2022/10/20 02:08:10;;;;;;;;;;;7.20;99.90;;;;;;12545908;28;20385;-37
2022/10/20 02:14:13;;;;;;;;;;;7.00;99.90;;;;;;12553597;28;19985;-36
2022/10/20 02:20:16;;;;;;;;;;;7.00;99.90;;;;;;12535974;28;19943;-37
2022/10/20 02:26:19;;;;;;;;;;;7.40;99.90;;;;;;12559978;28;19929;-36
2022/10/20 02:32:23;;;;;;;;;;;7.50;99.90;;;;;;12551393;28;19940;-36
2022/10/20 02:38:25;;;;;;;;;;;7.40;99.90;;;;;;12543211;28;19936;-36
2022/10/20 02:44:26;;;;;;;;;;;7.40;99.90;;;;;;12528347;28;19924;-37
2022/10/20 02:50:28;;;;;;;;;;;7.30;99.90;;;;;;12556620;28;19929;-36
2022/10/20 02:56:31;;;;;;;;;;;7.20;99.90;;;;;;12544543;28;20178;-36
2022/10/20 03:02:33;;;;;;;;;;;7.60;99.90;;;;;;12548711;28;20410;-36
2022/10/20 03:08:35;;;;;;;;;;;7.80;99.90;;;;;;12561406;28;20361;-36
2022/10/20 03:14:37;;;;;;;;;;;7.40;99.90;;;;;;12544013;28;19967;-36
2022/10/20 03:20:39;;;;;;;;;;;7.50;99.90;;;;;;12551038;28;19967;-36
2022/10/20 03:26:40;;;;;;;;;;;7.40;99.90;;;;;;12553091;28;19928;-37
2022/10/20 03:32:42;;;;;;;;;;;7.60;99.90;;;;;;12553817;28;20395;-36
2022/10/20 03:38:44;;;;;;;;;;;7.50;99.90;;;;;;12557124;28;19925;-37
2022/10/20 03:44:46;;;;;;;;;;;6.80;99.90;;;;;;12553582;28;19929;-36
2022/10/20 03:50:48;;;;;;;;;;;7.00;99.90;;;;;;12563148;28;19931;-36
2022/10/20 03:56:50;;;;;;;;;;;6.70;99.90;;;;;;12559563;28;20385;-36
2022/10/20 04:02:52;;;;;;;;;;;7.20;99.90;;;;;;12564285;28;19940;-36
2022/10/20 04:08:54;;;;;;;;;;;7.20;99.90;;;;;;12546472;28;20415;-37
2022/10/20 04:14:56;;;;;;;;;;;7.20;99.90;;;;;;12545239;28;20323;-36
2022/10/20 04:20:58;;;;;;;;;;;7.00;99.90;;;;;;12548456;28;19979;-37
2022/10/20 04:27:00;;;;;;;;;;;6.90;99.90;;;;;;12537370;28;20019;-36
2022/10/20 04:33:02;;;;;;;;;;;6.90;99.90;;;;;;12549467;28;19928;-37
2022/10/20 04:39:05;;;;;;;;;;;6.80;99.90;;;;;;12548040;28;19924;-36
2022/10/20 04:45:07;;;;;;;;;;;6.60;99.90;;;;;;12551572;28;20277;-36
2022/10/20 04:51:10;;;;;;;;;;;6.30;99.90;;;;;;12562631;28;19929;-36
2022/10/20 04:57:11;;;;;;;;;;;6.80;99.90;;;;;;12553052;28;19932;-36
2022/10/20 05:03:13;;;;;;;;;;;7.00;99.90;;;;;;12558707;28;19925;-36
2022/10/20 05:09:15;;;;;;;;;;;6.70;99.90;;;;;;12554741;28;20388;-36
2022/10/20 05:15:17;;;;;;;;;;;6.80;99.90;;;;;;12535839;28;20373;-36
2022/10/20 05:21:24;;;;;;;;;;;6.90;99.90;;;;;;12556082;28;19971;-37
2022/10/20 05:27:27;;;;;;;;;;;6.80;99.90;;;;;;12563605;28;19925;-36
2022/10/20 05:33:29;;;;;;;;;;;6.50;99.90;;;;;;12546340;28;19935;-36
2022/10/20 05:39:30;;;;;;;;;;;6.60;99.90;;;;;;12554130;28;20190;-36
2022/10/20 05:45:32;;;;;;;;;;;6.50;99.90;;;;;;12546213;28;19928;-37
2022/10/20 05:51:34;;;;;;;;;;;6.50;99.90;;;;;;12545118;28;19929;-36
2022/10/20 05:57:36;;;;;;;;;;;6.40;99.90;;;;;;12556617;28;19924;-36
2022/10/20 06:03:37;;;;;;;;;;;6.50;99.90;;;;;;12557664;28;20360;-36
2022/10/20 06:09:39;;;;;;;;;;;6.40;99.90;;;;;;12549840;28;20667;-36
2022/10/20 06:15:41;;;;;;;;;;;6.00;99.90;;;;;;12532219;28;20438;-37
2022/10/20 06:21:43;;;;;;;;;;;6.10;99.90;;;;;;12551694;28;19928;-36
2022/10/20 06:27:44;;;;;;;;;;;6.40;99.90;;;;;;12543946;28;19929;-37
2022/10/20 06:33:47;;;;;;;;;;;6.20;99.90;;;;;;12519398;28;19928;-36
2022/10/20 06:39:48;;;;;;;;;;;6.10;99.90;;;;;;12547821;28;19925;-36
2022/10/20 06:45:54;;;;;;;;;;;6.30;99.90;;;;;;12555458;28;19929;-36
2022/10/20 06:51:56;;;;;;;;;;;6.10;99.90;;;;;;12552554;28;20479;-37
2022/10/20 06:57:58;;;;;;;;;;;6.30;99.90;;;;;;12552291;28;19962;-37
2022/10/20 07:04:01;;;;;;;;;;;6.70;99.90;;;;;;12554140;28;20282;-36
2022/10/20 07:10:03;;;;;;;;;;;6.90;99.90;;;;;;12559683;28;20300;-37
2022/10/20 07:16:05;;;;;;;;;;;6.80;99.90;;;;;;12572069;28;19935;-37
2022/10/20 07:22:07;;;;;;;;;;;6.80;99.90;;;;;;12549295;28;19924;-37
2022/10/20 07:28:09;;;;;;;;;;;6.90;99.90;;;;;;12557646;28;19925;-36
2022/10/20 07:34:11;;;;;;;;;;;7.40;99.90;;;;;;12556418;28;20876;-36
2022/10/20 07:40:25;;;;;;;;;;;7.40;99.90;;;;;;12556015;28;20330;-36
2022/10/20 07:46:27;;;;;;;;;;;7.80;99.90;;;;;;12564662;28;20304;-37
2022/10/20 07:52:30;;;;;;;;;;;7.90;99.90;;;;;;12559961;28;19997;-36
2022/10/20 07:58:32;;;;;;;;;;;8.10;99.90;;;;;;12555850;28;20449;-36
2022/10/20 08:04:33;;;;;;;;;;;8.30;99.90;;;;;;12561785;28;19931;-37
2022/10/20 08:10:35;;;;;;;;;;;8.10;99.90;;;;;;12554813;28;19929;-37
2022/10/20 08:16:37;;;;;;;;;;;8.10;99.90;;;;;;12574558;28;19925;-37
2022/10/20 08:22:55;;;;;;;;;;;8.20;99.90;;;;;;12551028;28;19932;-36
2022/10/20 08:28:56;;;;;;;;;;;8.50;99.90;;;;;;12548842;28;19925;-37
2022/10/20 08:34:58;;;;;;;;;;;8.80;99.90;;;;;;12558256;28;19925;-37
2022/10/20 08:41:00;;;;;;;;;;;8.90;99.90;;;;;;12558100;28;19925;-36
2022/10/20 08:47:03;;;;;;;;;;;9.00;99.90;;;;;;12548229;28;20338;-36
2022/10/20 08:53:05;;;;;;;;;;;9.30;99.90;;;;;;12554293;28;19925;-37
2022/10/20 08:59:20;;;;;;;;;;;9.70;99.90;;;;;;12559423;28;19952;-36
2022/10/20 09:05:24;;;;;;;;;;;10.00;99.90;;;;;;12560227;28;19935;-37
2022/10/20 09:11:30;;;;;;;;;;;10.10;99.90;;;;;;12554120;28;19932;-36
2022/10/20 09:17:33;;;;;;;;;;;10.60;99.90;;;;;;12547815;28;19929;-36
2022/10/20 09:23:39;;;;;;;;;;;11.00;99.90;;;;;;12554893;28;19925;-37
2022/10/20 09:29:44;;;;;;;;;;;11.20;99.90;;;;;;12554474;28;20015;-37
2022/10/20 09:35:46;;;;;;;;;;;11.40;99.90;;;;;;12555576;28;19928;-36
2022/10/20 09:41:49;;;;;;;;;;;11.60;99.90;;;;;;12555760;28;19925;-36
2022/10/20 09:47:53;;;;;;;;;;;11.70;99.90;;;;;;12550135;28;19925;-37
2022/10/20 09:54:03;;;;;;;;;;;11.90;99.90;;;;;;12555277;28;20418;-36
2022/10/20 10:00:05;;;;;;;;;;;11.90;99.90;;;;;;12543068;28;19935;-36
2022/10/20 10:06:33;;;;;;;;;;;12.10;99.90;;;;;;12522593;28;19925;-36
2022/10/20 10:12:37;;;;;;;;;;;12.30;99.90;;;;;;12564460;28;20055;-36
2022/10/20 10:18:39;;;;;;;;;;;12.80;99.90;;;;;;12540482;28;20013;-36
2022/10/20 10:24:42;;;;;;;;;;;13.00;99.90;;;;;;12544519;28;20343;-36
2022/10/20 10:30:44;;;;;;;;;;;13.10;99.90;;;;;;12558774;28;19932;-36
2022/10/20 10:36:50;;;;;;;;;;;13.20;99.90;;;;;;12558695;28;19978;-36
2022/10/20 10:43:11;;;;;;;;;;;13.30;99.90;;;;;;12561180;28;20013;-36
2022/10/20 10:49:21;;;;;;;;;;;13.30;99.90;;;;;;12559216;28;19929;-36
2022/10/20 10:55:23;;;;;;;;;;;13.20;99.90;;;;;;12561524;28;19929;-36
2022/10/20 11:02:17;;;;;;;;;;;13.10;99.90;;;;;;12558293;28;19929;-37
2022/10/20 11:08:19;;;;;;;;;;;13.10;99.90;;;;;;12493695;28;19971;-36
2022/10/20 11:14:39;;;;;;;;;;;13.30;99.90;;;;;;12567387;28;19929;-36
2022/10/20 11:20:54;;;;;;;;;;;13.40;99.90;;;;;;12566091;28;19948;-36
2022/10/20 11:27:00;;;;;;;;;;;13.60;99.90;;;;;;12565233;28;19932;-36
2022/10/20 11:33:13;;;;;;;;;;;13.50;99.90;;;;;;12561798;28;19929;-36
2022/10/20 11:39:26;;;;;;;;;;;13.60;99.90;;;;;;12560283;28;19951;-46
2022/10/20 11:45:28;;;;;;;;;;;13.60;99.90;;;;;;12557065;28;19925;-36
2022/10/20 11:51:30;;;;;;;;;;;13.50;99.90;;;;;;12563568;28;20376;-36
2022/10/20 11:57:38;;;;;;;;;;;13.20;99.90;;;;;;12556321;28;19928;-36
2022/10/20 12:03:43;;;;;;;;;;;13.20;99.90;;;;;;12553000;28;20396;-36
2022/10/20 12:09:58;;;;;;;;;;;13.20;99.90;;;;;;12552021;28;20277;-37
2022/10/20 12:16:00;;;;;;;;;;;13.30;99.90;;;;;;12560458;28;19931;-36
2022/10/20 12:22:14;;;;;;;;;;;13.40;99.90;;;;;;12563448;28;19932;-36
2022/10/20 12:28:18;;;;;;;;;;;13.50;99.90;;;;;;12544073;28;19929;-36
2022/10/20 12:34:23;;;;;;;;;;;13.60;99.90;;;;;;12560324;28;20292;-37
2022/10/20 12:40:32;;;;;;;;;;;13.60;99.90;;;;;;12551189;28;19935;-36
2022/10/20 12:46:37;;;;;;;;;;;13.60;99.90;;;;;;12563953;28;19932;-36
2022/10/20 12:52:39;;;;;;;;;;;13.50;99.90;;;;;;12553869;28;19933;-36
2022/10/20 12:58:59;;;;;;;;;;;13.40;99.90;;;;;;12557426;28;20371;-36
2022/10/20 13:05:07;;;;;;;;;;;13.30;99.90;;;;;;12549420;28;19924;-37
2022/10/20 13:11:27;;;;;;;;;;;13.20;99.90;;;;;;12566751;28;20368;-36
2022/10/20 13:17:36;;;;;;;;;;;13.20;99.90;;;;;;12559861;28;19935;-37
2022/10/20 13:23:40;;;;;;;;;;;13.20;99.90;;;;;;12559931;28;20290;-36
2022/10/20 13:29:42;;;;;;;;;;;13.10;99.90;;;;;;12553943;28;19971;-36
2022/10/20 13:35:58;;;;;;;;;;;13.10;99.90;;;;;;12563289;28;19929;-36
2022/10/20 13:42:06;;;;;;;;;;;13.10;99.90;;;;;;12551286;28;20337;-36
2022/10/20 13:48:11;;;;;;;;;;;13.20;99.90;;;;;;12552870;28;20392;-36
2022/10/20 13:54:18;;;;;;;;;;;13.10;99.90;;;;;;12556013;28;20023;-37
2022/10/20 14:00:27;;;;;;;;;;;13.00;99.90;;;;;;12549382;28;19925;-36
2022/10/20 14:06:32;;;;;;;;;;;13.10;99.90;;;;;;12544875;28;19948;-37
2022/10/20 14:12:34;;;;;;;;;;;13.10;99.90;;;;;;12553275;28;19929;-37
2022/10/20 14:18:38;;;;;;;;;;;13.10;99.90;;;;;;12551031;28;19925;-36
2022/10/20 14:24:42;;;;;;;;;;;13.10;99.90;;;;;;12530878;28;19924;-36
2022/10/20 14:30:46;;;;;;;;;;;13.10;99.90;;;;;;12553904;28;19925;-36
2022/10/20 14:36:48;;;;;;;;;;;13.00;99.90;;;;;;12551514;28;19978;-36
2022/10/20 14:42:51;;;;;;;;;;;12.90;99.90;;;;;;12550966;28;19929;-37
2022/10/20 14:48:52;;;;;;;;;;;13.00;99.90;;;;;;12535833;28;19958;-37
2022/10/20 14:54:54;;;;;;;;;;;13.00;99.90;;;;;;12548601;28;19925;-36
2022/10/20 15:01:12;;;;;;;;;;;13.00;99.90;;;;;;12544557;28;19924;-37
2022/10/20 15:07:20;;;;;;;;;;;13.00;99.90;;;;;;12549690;28;20279;-36
2022/10/20 15:13:26;;;;;;;;;;;13.10;99.90;;;;;;12558997;28;19998;-36
2022/10/20 15:19:30;;;;;;;;;;;13.00;99.90;;;;;;12558382;28;19939;-37
2022/10/20 15:25:38;;;;;;;;;;;13.00;99.90;;;;;;12533081;28;19928;-37
2022/10/20 15:31:40;;;;;;;;;;;12.90;99.90;;;;;;12563178;28;19925;-36
2022/10/20 15:37:41;;;;;;;;;;;12.60;99.90;;;;;;12561223;28;19955;-37
2022/10/20 15:43:43;;;;;;;;;;;12.30;99.90;;;;;;12559293;28;19929;-37
2022/10/20 15:49:45;;;;;;;;;;;12.20;99.90;;;;;;12555171;28;20292;-36
2022/10/20 15:55:46;;;;;;;;;;;12.10;99.90;;;;;;12561875;28;19935;-36
2022/10/20 16:01:55;;;;;;;;;;;12.10;99.90;;;;;;12555452;28;20385;-36
2022/10/20 16:07:57;;;;;;;;;;;12.00;99.90;;;;;;12553086;28;19933;-36
2022/10/20 16:13:59;;;;;;;;;;;12.00;99.90;;;;;;12570963;28;20004;-36
2022/10/20 16:20:01;;;;;;;;;;;12.00;99.90;;;;;;12561529;28;19936;-37
2022/10/20 16:26:04;;;;;;;;;;;11.90;99.90;;;;;;12552380;28;20292;-37
2022/10/20 16:32:06;;;;;;;;;;;11.90;99.90;;;;;;12551562;28;19985;-36
2022/10/20 16:38:08;;;;;;;;;;;11.80;99.90;;;;;;12556821;28;19933;-36
2022/10/20 16:44:10;;;;;;;;;;;11.80;99.90;;;;;;12557510;28;19924;-37
2022/10/20 16:50:12;;;;;;;;;;;11.80;99.90;;;;;;12573763;28;20464;-38
2022/10/20 16:56:14;;;;;;;;;;;11.90;99.90;;;;;;12559191;28;19928;-38
2022/10/20 17:02:22;;;;;;;;;;;11.90;99.90;;;;;;12533444;28;20205;-37
2022/10/20 17:08:24;;;;;;;;;;;11.90;99.90;;;;;;12549095;28;19925;-36
2022/10/20 17:14:26;;;;;;;;;;;11.80;99.90;;;;;;12555157;28;19974;-37
2022/10/20 17:20:28;;;;;;;;;;;11.90;99.90;;;;;;12546066;28;19931;-36
2022/10/20 17:26:30;;;;;;;;;;;11.90;99.90;;;;;;12545017;28;19929;-36
2022/10/20 17:32:32;;;;;;;;;;;12.00;99.90;;;;;;12555323;28;19936;-37
2022/10/20 17:38:34;;;;;;;;;;;12.00;99.90;;;;;;12550108;28;19931;-36
2022/10/20 17:44:36;;;;;;;;;;;12.00;99.90;;;;;;12554071;28;20396;-37
2022/10/20 17:50:37;;;;;;;;;;;12.00;99.90;;;;;;12563063;28;19939;-36
2022/10/20 17:56:39;;;;;;;;;;;12.00;99.90;;;;;;12561529;28;19932;-36
2022/10/20 18:02:50;;;;;;;;;;;12.00;99.90;;;;;;12559188;28;20019;-36
2022/10/20 18:08:53;;;;;;;;;;;12.00;99.90;;;;;;12543939;28;19936;-36
2022/10/20 18:14:55;;;;;;;;;;;12.00;99.90;;;;;;12557266;28;19924;-37
2022/10/20 18:20:57;;;;;;;;;;;12.10;99.90;;;;;;12560650;28;19932;-37
2022/10/20 18:26:58;;;;;;;;;;;12.00;99.90;;;;;;12555692;28;19932;-36
2022/10/20 18:33:00;;;;;;;;;;;12.00;99.90;;;;;;12548424;28;19925;-36
2022/10/20 18:39:03;;;;;;;;;;;11.90;99.90;;;;;;12552981;28;19977;-36
2022/10/20 18:45:05;;;;;;;;;;;12.00;99.90;;;;;;12548218;28;20308;-37
2022/10/20 18:51:07;;;;;;;;;;;11.90;99.90;;;;;;12554191;28;19932;-36
2022/10/20 18:57:09;;;;;;;;;;;11.90;99.90;;;;;;12569756;28;19924;-36
2022/10/20 19:03:11;;;;;;;;;;;11.90;99.90;;;;;;12554512;28;19953;-36
2022/10/20 19:09:17;;;;;;;;;;;11.90;99.90;;;;;;12570198;28;19928;-36
2022/10/20 19:15:19;;;;;;;;;;;12.00;99.90;;;;;;12559122;28;20479;-37
2022/10/20 19:21:22;;;;;;;;;;;11.90;99.90;;;;;;12563597;28;19981;-36
2022/10/20 19:27:24;;;;;;;;;;;12.00;99.90;;;;;;12554422;28;19935;-36
2022/10/20 19:33:28;;;;;;;;;;;12.00;99.90;;;;;;12553021;28;19932;-37
2022/10/20 19:39:31;;;;;;;;;;;12.00;99.90;;;;;;12559217;28;20269;-37
2022/10/20 19:45:33;;;;;;;;;;;12.00;99.90;;;;;;12553149;28;19928;-37
2022/10/20 19:51:35;;;;;;;;;;;12.00;99.90;;;;;;12562617;28;19928;-36
2022/10/20 19:57:38;;;;;;;;;;;12.00;99.90;;;;;;12560526;28;20274;-37
2022/10/20 20:03:40;;;;;;;;;;;12.00;99.90;;;;;;12556651;28;19925;-36
2022/10/20 20:09:42;;;;;;;;;;;12.00;99.90;;;;;;12556445;28;20079;-36
2022/10/20 20:15:45;;;;;;;;;;;12.00;99.90;;;;;;12565362;28;19924;-36
2022/10/20 20:21:48;;;;;;;;;;;12.00;99.90;;;;;;12552407;28;20389;-36
2022/10/20 20:27:52;;;;;;;;;;;11.90;99.90;;;;;;12560277;28;20281;-37
2022/10/20 20:33:55;;;;;;;;;;;11.80;99.90;;;;;;12562499;28;19935;-37
2022/10/20 20:39:57;;;;;;;;;;;11.70;99.90;;;;;;12556326;28;20069;-37
2022/10/20 20:46:06;;;;;;;;;;;11.60;99.90;;;;;;12561257;28;19925;-37
2022/10/20 20:52:07;;;;;;;;;;;11.50;99.90;;;;;;12552225;28;19924;-37
2022/10/20 20:58:09;;;;;;;;;;;11.40;99.90;;;;;;12554554;28;20269;-36
2022/10/20 21:04:11;;;;;;;;;;;11.40;99.90;;;;;;12559580;28;19928;-37
2022/10/20 21:10:13;;;;;;;;;;;11.30;99.90;;;;;;12552700;28;19929;-36
2022/10/20 21:16:19;;;;;;;;;;;11.40;99.90;;;;;;12554129;28;19924;-36
2022/10/20 21:22:21;;;;;;;;;;;11.30;99.90;;;;;;12546837;28;20305;-37
2022/10/20 21:28:23;;;;;;;;;;;11.30;99.90;;;;;;12553324;28;19956;-37
2022/10/20 21:34:25;;;;;;;;;;;11.30;99.90;;;;;;12564953;28;19936;-37
2022/10/20 21:40:26;;;;;;;;;;;11.20;99.90;;;;;;12552952;28;20289;-36
2022/10/20 21:46:32;;;;;;;;;;;11.10;99.90;;;;;;12559217;28;19932;-36
2022/10/20 21:52:36;;;;;;;;;;;11.20;99.90;;;;;;12567057;28;19936;-36
2022/10/20 21:58:38;;;;;;;;;;;11.30;99.90;;;;;;12566608;28;19932;-36
2022/10/20 22:04:40;;;;;;;;;;;11.50;99.90;;;;;;12568897;28;19924;-36
2022/10/20 22:10:41;;;;;;;;;;;11.80;99.90;;;;;;12549835;28;19925;-37
2022/10/20 22:16:43;;;;;;;;;;;11.90;99.90;;;;;;12553994;28;19929;-37
2022/10/20 22:22:46;;;;;;;;;;;12.00;99.90;;;;;;12557374;28;19931;-37
2022/10/20 22:28:51;;;;;;;;;;;12.00;99.90;;;;;;12560508;28;20458;-36
2022/10/20 22:34:52;;;;;;;;;;;11.80;99.90;;;;;;12571857;28;19928;-37
2022/10/20 22:41:00;;;;;;;;;;;11.70;99.90;;;;;;12563263;28;20300;-37
2022/10/20 22:47:02;;;;;;;;;;;11.60;99.90;;;;;;12565024;28;19951;-36
2022/10/20 22:53:04;;;;;;;;;;;11.30;99.90;;;;;;12562525;28;20373;-36
2022/10/20 22:59:05;;;;;;;;;;;11.20;99.90;;;;;;12548399;28;19925;-37
2022/10/20 23:05:07;;;;;;;;;;;11.20;99.90;;;;;;12558186;28;19925;-37
2022/10/20 23:11:09;;;;;;;;;;;11.10;99.90;;;;;;12561023;28;19940;-37
2022/10/20 23:17:11;;;;;;;;;;;11.40;99.90;;;;;;12550213;28;20380;-36
2022/10/20 23:23:12;;;;;;;;;;;11.90;99.90;;;;;;12554616;28;19925;-36
2022/10/20 23:29:14;;;;;;;;;;;12.20;99.90;;;;;;12557746;28;19932;-36
2022/10/20 23:35:16;;;;;;;;;;;12.40;99.90;;;;;;12536471;28;19944;-37
2022/10/20 23:41:17;;;;;;;;;;;12.50;99.90;;;;;;12559636;28;19931;-37
2022/10/20 23:47:19;;;;;;;;;;;12.60;99.90;;;;;;12552911;28;19925;-37
2022/10/20 23:53:20;;;;;;;;;;;12.60;99.90;;;;;;12567308;28;20281;-37
2022/10/20 23:59:22;;;;;;;;;;;12.70;99.90;;;;;;12559832;28;19925;-37
